sensor_id;sensor_type;location;lat;lon;timestamp;pressure;altitude;pressure_sealevel;temperature;humidity
56568;BME280;42456;49.956;20.004;2023-02-03T00:02:00;98811.17;;;0.78;80.14
56568;BME280;42456;49.956;20.004;2023-02-03T00:04:27;98810.11;;;0.77;80.26
56568;BME280;42456;49.956;20.004;2023-02-03T00:06:55;98806.40;;;0.77;80.59
56568;BME280;42456;49.956;20.004;2023-02-03T00:09:22;98803.71;;;0.78;80.43
56568;BME280;42456;49.956;20.004;2023-02-03T00:11:49;98808.32;;;0.79;80.71
56568;BME280;42456;49.956;20.004;2023-02-03T00:14:16;98811.77;;;0.81;80.67
56568;BME280;42456;49.956;20.004;2023-02-03T00:16:42;98809.05;;;0.83;80.00
56568;BME280;42456;49.956;20.004;2023-02-03T00:19:09;98802.73;;;0.83;80.34
56568;BME280;42456;49.956;20.004;2023-02-03T00:21:36;98806.23;;;0.82;80.59
56568;BME280;42456;49.956;20.004;2023-02-03T00:24:03;98812.10;;;0.81;80.22
56568;BME280;42456;49.956;20.004;2023-02-03T00:26:30;98808.05;;;0.78;80.43
56568;BME280;42456;49.956;20.004;2023-02-03T00:28:58;98815.72;;;0.76;80.30
56568;BME280;42456;49.956;20.004;2023-02-03T00:31:25;98819.48;;;0.71;80.16
56568;BME280;42456;49.956;20.004;2023-02-03T00:33:53;98825.16;;;0.67;80.19
56568;BME280;42456;49.956;20.004;2023-02-03T00:36:22;98829.83;;;0.62;80.47
56568;BME280;42456;49.956;20.004;2023-02-03T00:38:49;98837.14;;;0.58;80.35
56568;BME280;42456;49.956;20.004;2023-02-03T00:41:17;98837.73;;;0.54;80.54
56568;BME280;42456;49.956;20.004;2023-02-03T00:43:44;98840.62;;;0.51;80.62
56568;BME280;42456;49.956;20.004;2023-02-03T00:46:11;98843.52;;;0.49;80.58
56568;BME280;42456;49.956;20.004;2023-02-03T00:48:38;98849.31;;;0.48;80.58
56568;BME280;42456;49.956;20.004;2023-02-03T00:51:19;98851.13;;;0.48;80.69
56568;BME280;42456;49.956;20.004;2023-02-03T00:53:47;98857.32;;;0.49;80.55
56568;BME280;42456;49.956;20.004;2023-02-03T00:56:14;98854.64;;;0.50;81.01
56568;BME280;42456;49.956;20.004;2023-02-03T00:58:41;98853.81;;;0.52;80.57
56568;BME280;42456;49.956;20.004;2023-02-03T01:01:09;98858.91;;;0.54;80.86
56568;BME280;42456;49.956;20.004;2023-02-03T01:03:36;98860.47;;;0.56;80.53
56568;BME280;42456;49.956;20.004;2023-02-03T01:06:10;98861.98;;;0.59;80.83
56568;BME280;42456;49.956;20.004;2023-02-03T01:08:38;98864.76;;;0.61;80.49
56568;BME280;42456;49.956;20.004;2023-02-03T01:11:10;98864.92;;;0.62;80.74
56568;BME280;42456;49.956;20.004;2023-02-03T01:13:37;98862.66;;;0.63;80.86
56568;BME280;42456;49.956;20.004;2023-02-03T01:16:13;98868.64;;;0.63;81.05
56568;BME280;42456;49.956;20.004;2023-02-03T01:18:40;98873.34;;;0.62;81.14
56568;BME280;42456;49.956;20.004;2023-02-03T01:21:13;98870.41;;;0.60;80.91
56568;BME280;42456;49.956;20.004;2023-02-03T01:23:40;98874.71;;;0.58;80.26
56568;BME280;42456;49.956;20.004;2023-02-03T01:26:09;98874.60;;;0.56;80.75
56568;BME280;42456;49.956;20.004;2023-02-03T01:28:37;98881.30;;;0.53;80.72
56568;BME280;42456;49.956;20.004;2023-02-03T01:31:15;98882.20;;;0.50;80.94
56568;BME280;42456;49.956;20.004;2023-02-03T01:33:44;98879.38;;;0.47;81.14
56568;BME280;42456;49.956;20.004;2023-02-03T01:36:15;98880.27;;;0.46;81.52
56568;BME280;42456;49.956;20.004;2023-02-03T01:38:42;98871.71;;;0.44;81.88
56568;BME280;42456;49.956;20.004;2023-02-03T01:41:16;98875.67;;;0.43;81.38
56568;BME280;42456;49.956;20.004;2023-02-03T01:43:45;98875.48;;;0.44;81.74
56568;BME280;42456;49.956;20.004;2023-02-03T01:48:53;98872.06;;;0.46;81.76
56568;BME280;42456;49.956;20.004;2023-02-03T01:51:21;98869.61;;;0.49;81.76
56568;BME280;42456;49.956;20.004;2023-02-03T01:53:49;98865.81;;;0.52;81.99
56568;BME280;42456;49.956;20.004;2023-02-03T01:56:18;98864.90;;;0.55;81.98
56568;BME280;42456;49.956;20.004;2023-02-03T01:58:45;98858.89;;;0.58;81.90
56568;BME280;42456;49.956;20.004;2023-02-03T02:01:13;98863.31;;;0.60;81.62
56568;BME280;42456;49.956;20.004;2023-02-03T02:03:47;98863.23;;;0.62;82.41
56568;BME280;42456;49.956;20.004;2023-02-03T02:06:16;98853.37;;;0.62;81.64
56568;BME280;42456;49.956;20.004;2023-02-03T02:08:46;98849.51;;;0.62;81.59
56568;BME280;42456;49.956;20.004;2023-02-03T02:11:13;98845.70;;;0.60;81.80
56568;BME280;42456;49.956;20.004;2023-02-03T02:13:42;98840.85;;;0.57;81.43
56568;BME280;42456;49.956;20.004;2023-02-03T02:40:51;98840.64;;;0.23;80.39
56568;BME280;42456;49.956;20.004;2023-02-03T02:46:14;98843.45;;;0.23;80.26
56568;BME280;42456;49.956;20.004;2023-02-03T02:48:53;98847.52;;;0.24;80.61
56568;BME280;42456;49.956;20.004;2023-02-03T02:51:23;98845.84;;;0.24;80.60
56568;BME280;42456;49.956;20.004;2023-02-03T02:53:55;98852.52;;;0.26;80.36
56568;BME280;42456;49.956;20.004;2023-02-03T02:56:25;98853.12;;;0.27;80.54
56568;BME280;42456;49.956;20.004;2023-02-03T02:58:55;98854.08;;;0.28;80.15
56568;BME280;42456;49.956;20.004;2023-02-03T03:01:23;98845.81;;;0.27;80.17
56568;BME280;42456;49.956;20.004;2023-02-03T03:03:50;98841.15;;;0.25;79.68
56568;BME280;42456;49.956;20.004;2023-02-03T03:06:22;98839.70;;;0.22;80.08
56568;BME280;42456;49.956;20.004;2023-02-03T03:09:05;98834.45;;;0.18;79.86
56568;BME280;42456;49.956;20.004;2023-02-03T03:11:40;98825.89;;;0.14;79.78
56568;BME280;42456;49.956;20.004;2023-02-03T03:14:09;98822.34;;;0.09;79.77
56568;BME280;42456;49.956;20.004;2023-02-03T03:16:42;98811.23;;;0.02;79.50
56568;BME280;42456;49.956;20.004;2023-02-03T03:19:14;98810.06;;;-0.04;79.60
56568;BME280;42456;49.956;20.004;2023-02-03T03:21:48;98800.73;;;-0.10;79.50
56568;BME280;42456;49.956;20.004;2023-02-03T03:24:21;98794.84;;;-0.16;79.39
56568;BME280;42456;49.956;20.004;2023-02-03T03:27:01;98791.99;;;-0.20;79.14
56568;BME280;42456;49.956;20.004;2023-02-03T03:29:31;98788.50;;;-0.25;79.52
56568;BME280;42456;49.956;20.004;2023-02-03T03:32:01;98790.50;;;-0.29;79.25
56568;BME280;42456;49.956;20.004;2023-02-03T03:34:29;98799.17;;;-0.33;79.21
56568;BME280;42456;49.956;20.004;2023-02-03T03:37:10;98810.77;;;-0.36;79.18
56568;BME280;42456;49.956;20.004;2023-02-03T03:50:24;98832.70;;;-0.37;79.63
56568;BME280;42456;49.956;20.004;2023-02-03T03:52:54;98832.44;;;-0.36;79.54
56568;BME280;42456;49.956;20.004;2023-02-03T03:55:26;98835.35;;;-0.36;79.35
56568;BME280;42456;49.956;20.004;2023-02-03T03:58:04;98828.52;;;-0.36;79.57
56568;BME280;42456;49.956;20.004;2023-02-03T04:00:34;98831.05;;;-0.37;79.53
56568;BME280;42456;49.956;20.004;2023-02-03T04:03:10;98819.35;;;-0.39;79.54
56568;BME280;42456;49.956;20.004;2023-02-03T04:05:40;98806.95;;;-0.41;79.27
56568;BME280;42456;49.956;20.004;2023-02-03T04:08:07;98799.95;;;-0.43;79.18
56568;BME280;42456;49.956;20.004;2023-02-03T04:10:36;98786.91;;;-0.47;79.14
56568;BME280;42456;49.956;20.004;2023-02-03T04:13:04;98783.19;;;-0.53;79.03
56568;BME280;42456;49.956;20.004;2023-02-03T04:15:32;98781.88;;;-0.60;78.77
56568;BME280;42456;49.956;20.004;2023-02-03T04:17:59;98777.52;;;-0.66;78.98
56568;BME280;42456;49.956;20.004;2023-02-03T04:20:30;98770.67;;;-0.72;78.93
56568;BME280;42456;49.956;20.004;2023-02-03T04:22:58;98770.00;;;-0.75;78.99
56568;BME280;42456;49.956;20.004;2023-02-03T04:25:25;98773.45;;;-0.77;79.02
56568;BME280;42456;49.956;20.004;2023-02-03T04:27:53;98773.60;;;-0.78;78.94
56568;BME280;42456;49.956;20.004;2023-02-03T04:30:34;98777.82;;;-0.78;79.01
56568;BME280;42456;49.956;20.004;2023-02-03T04:33:01;98781.28;;;-0.77;79.02
56568;BME280;42456;49.956;20.004;2023-02-03T04:35:28;98782.61;;;-0.76;79.13
56568;BME280;42456;49.956;20.004;2023-02-03T04:37:55;98778.65;;;-0.76;79.21
56568;BME280;42456;49.956;20.004;2023-02-03T04:40:21;98781.70;;;-0.76;79.09
56568;BME280;42456;49.956;20.004;2023-02-03T04:43:06;98784.74;;;-0.78;79.01
56568;BME280;42456;49.956;20.004;2023-02-03T04:45:33;98788.20;;;-0.80;79.03
56568;BME280;42456;49.956;20.004;2023-02-03T04:48:00;98782.58;;;-0.83;79.08
56568;BME280;42456;49.956;20.004;2023-02-03T04:50:26;98781.95;;;-0.85;78.92
56568;BME280;42456;49.956;20.004;2023-02-03T04:53:07;98776.30;;;-0.88;78.92
56568;BME280;42456;49.956;20.004;2023-02-03T04:55:34;98767.29;;;-0.91;79.04
56568;BME280;42456;49.956;20.004;2023-02-03T04:58:01;98766.65;;;-0.95;78.93
56568;BME280;42456;49.956;20.004;2023-02-03T05:00:28;98766.87;;;-0.99;78.78
56568;BME280;42456;49.956;20.004;2023-02-03T05:02:55;98767.76;;;-1.03;78.91
56568;BME280;42456;49.956;20.004;2023-02-03T05:05:22;98766.17;;;-1.06;78.96
56568;BME280;42456;49.956;20.004;2023-02-03T05:07:49;98760.16;;;-1.09;79.09
56568;BME280;42456;49.956;20.004;2023-02-03T05:10:16;98758.06;;;-1.13;79.05
56568;BME280;42456;49.956;20.004;2023-02-03T05:12:42;98761.34;;;-1.15;79.16
56568;BME280;42456;49.956;20.004;2023-02-03T05:15:09;98756.97;;;-1.15;78.85
56568;BME280;42456;49.956;20.004;2023-02-03T05:17:36;98754.83;;;-1.13;78.85
56568;BME280;42456;49.956;20.004;2023-02-03T05:20:06;98754.73;;;-1.13;79.12
56568;BME280;42456;49.956;20.004;2023-02-03T05:22:33;98755.23;;;-1.11;79.11
56568;BME280;42456;49.956;20.004;2023-02-03T05:25:02;98752.73;;;-1.08;79.24
56568;BME280;42456;49.956;20.004;2023-02-03T05:27:29;98753.72;;;-1.05;79.04
56568;BME280;42456;49.956;20.004;2023-02-03T05:29:56;98750.38;;;-1.03;79.05
56568;BME280;42456;49.956;20.004;2023-02-03T05:32:22;98748.41;;;-1.01;78.92
56568;BME280;42456;49.956;20.004;2023-02-03T05:34:49;98749.80;;;-1.00;78.87
56568;BME280;42456;49.956;20.004;2023-02-03T05:37:16;98747.27;;;-0.99;78.93
56568;BME280;42456;49.956;20.004;2023-02-03T05:39:42;98743.58;;;-0.99;78.80
56568;BME280;42456;49.956;20.004;2023-02-03T05:42:09;98737.06;;;-1.00;78.83
56568;BME280;42456;49.956;20.004;2023-02-03T05:44:36;98736.94;;;-1.02;78.80
56568;BME280;42456;49.956;20.004;2023-02-03T05:47:03;98733.79;;;-1.04;78.94
56568;BME280;42456;49.956;20.004;2023-02-03T05:49:29;98730.71;;;-1.06;78.79
56568;BME280;42456;49.956;20.004;2023-02-03T05:51:56;98728.30;;;-1.08;79.00
56568;BME280;42456;49.956;20.004;2023-02-03T05:54:23;98726.38;;;-1.11;78.86
56568;BME280;42456;49.956;20.004;2023-02-03T05:56:50;98726.48;;;-1.13;78.90
56568;BME280;42456;49.956;20.004;2023-02-03T05:59:17;98727.14;;;-1.15;78.87
56568;BME280;42456;49.956;20.004;2023-02-03T06:01:44;98717.07;;;-1.18;78.95
56568;BME280;42456;49.956;20.004;2023-02-03T06:04:10;98707.33;;;-1.20;78.98
56568;BME280;42456;49.956;20.004;2023-02-03T06:06:37;98701.23;;;-1.22;79.01
56568;BME280;42456;49.956;20.004;2023-02-03T06:09:06;98696.73;;;-1.24;78.80
56568;BME280;42456;49.956;20.004;2023-02-03T06:11:34;98697.70;;;-1.26;78.94
56568;BME280;42456;49.956;20.004;2023-02-03T06:14:02;98704.45;;;-1.26;78.88
56568;BME280;42456;49.956;20.004;2023-02-03T06:16:29;98709.14;;;-1.26;78.91
56568;BME280;42456;49.956;20.004;2023-02-03T06:18:56;98706.20;;;-1.25;78.79
56568;BME280;42456;49.956;20.004;2023-02-03T06:21:27;98694.84;;;-1.23;78.58
56568;BME280;42456;49.956;20.004;2023-02-03T06:23:54;98687.54;;;-1.20;78.88
56568;BME280;42456;49.956;20.004;2023-02-03T06:26:22;98674.80;;;-1.18;78.89
56568;BME280;42456;49.956;20.004;2023-02-03T06:28:50;98670.80;;;-1.13;78.70
56568;BME280;42456;49.956;20.004;2023-02-03T06:31:16;98664.64;;;-1.08;78.51
56568;BME280;42456;49.956;20.004;2023-02-03T06:33:43;98656.92;;;-1.05;78.60
56568;BME280;42456;49.956;20.004;2023-02-03T06:36:10;98656.05;;;-1.03;78.40
56568;BME280;42456;49.956;20.004;2023-02-03T06:38:37;98648.73;;;-1.01;78.43
56568;BME280;42456;49.956;20.004;2023-02-03T06:41:04;98640.80;;;-0.98;78.34
56568;BME280;42456;49.956;20.004;2023-02-03T06:43:30;98640.02;;;-0.98;78.19
56568;BME280;42456;49.956;20.004;2023-02-03T06:45:57;98639.80;;;-0.97;78.21
56568;BME280;42456;49.956;20.004;2023-02-03T06:48:24;98643.45;;;-0.97;78.00
56568;BME280;42456;49.956;20.004;2023-02-03T06:50:51;98645.98;;;-0.98;78.01
56568;BME280;42456;49.956;20.004;2023-02-03T06:53:17;98640.77;;;-0.97;78.07
56568;BME280;42456;49.956;20.004;2023-02-03T06:55:45;98633.80;;;-0.97;77.76
56568;BME280;42456;49.956;20.004;2023-02-03T06:58:13;98629.73;;;-0.97;77.78
56568;BME280;42456;49.956;20.004;2023-02-03T07:00:41;98626.30;;;-0.97;77.78
56568;BME280;42456;49.956;20.004;2023-02-03T07:03:21;98626.75;;;-0.95;77.76
56568;BME280;42456;49.956;20.004;2023-02-03T07:05:48;98626.35;;;-0.93;77.62
56568;BME280;42456;49.956;20.004;2023-02-03T07:08:15;98630.41;;;-0.89;77.75
56568;BME280;42456;49.956;20.004;2023-02-03T07:10:42;98626.68;;;-0.87;77.67
56568;BME280;42456;49.956;20.004;2023-02-03T07:13:09;98627.08;;;-0.84;77.72
56568;BME280;42456;49.956;20.004;2023-02-03T07:15:35;98622.00;;;-0.81;77.55
56568;BME280;42456;49.956;20.004;2023-02-03T07:18:02;98611.11;;;-0.77;77.56
56568;BME280;42456;49.956;20.004;2023-02-03T07:20:29;98608.57;;;-0.73;77.44
56568;BME280;42456;49.956;20.004;2023-02-03T07:22:57;98602.72;;;-0.67;77.43
56568;BME280;42456;49.956;20.004;2023-02-03T07:25:25;98598.34;;;-0.61;77.14
56568;BME280;42456;49.956;20.004;2023-02-03T07:27:52;98592.73;;;-0.56;76.99
56568;BME280;42456;49.956;20.004;2023-02-03T07:30:19;98594.20;;;-0.48;76.82
56568;BME280;42456;49.956;20.004;2023-02-03T07:32:50;98593.38;;;-0.40;76.43
56568;BME280;42456;49.956;20.004;2023-02-03T07:35:18;98593.97;;;-0.32;76.79
56568;BME280;42456;49.956;20.004;2023-02-03T07:37:45;98591.16;;;-0.23;76.36
56568;BME280;42456;49.956;20.004;2023-02-03T07:40:13;98587.06;;;-0.13;76.33
56568;BME280;42456;49.956;20.004;2023-02-03T07:42:41;98584.29;;;-0.04;76.33
56568;BME280;42456;49.956;20.004;2023-02-03T07:45:13;98586.19;;;0.05;75.68
56568;BME280;42456;49.956;20.004;2023-02-03T07:47:40;98578.59;;;0.15;75.21
56568;BME280;42456;49.956;20.004;2023-02-03T07:50:09;98572.86;;;0.21;75.70
56568;BME280;42456;49.956;20.004;2023-02-03T07:52:37;98567.92;;;0.27;74.68
56568;BME280;42456;49.956;20.004;2023-02-03T07:55:04;98559.43;;;0.30;75.20
56568;BME280;42456;49.956;20.004;2023-02-03T07:57:30;98561.34;;;0.31;74.54
56568;BME280;42456;49.956;20.004;2023-02-03T07:59:57;98556.06;;;0.32;74.28
56568;BME280;42456;49.956;20.004;2023-02-03T08:02:24;98548.14;;;0.33;73.86
56568;BME280;42456;49.956;20.004;2023-02-03T08:04:51;98545.70;;;0.33;74.14
56568;BME280;42456;49.956;20.004;2023-02-03T08:07:18;98541.27;;;0.34;73.69
56568;BME280;42456;49.956;20.004;2023-02-03T08:09:44;98543.33;;;0.35;73.25
56568;BME280;42456;49.956;20.004;2023-02-03T08:12:11;98543.71;;;0.37;73.16
56568;BME280;42456;49.956;20.004;2023-02-03T08:14:38;98540.56;;;0.41;73.08
56568;BME280;42456;49.956;20.004;2023-02-03T08:17:04;98536.80;;;0.44;72.42
56568;BME280;42456;49.956;20.004;2023-02-03T08:19:31;98532.96;;;0.45;72.28
56568;BME280;42456;49.956;20.004;2023-02-03T08:21:58;98527.95;;;0.48;72.21
56568;BME280;42456;49.956;20.004;2023-02-03T08:24:25;98520.92;;;0.51;72.26
56568;BME280;42456;49.956;20.004;2023-02-03T08:26:52;98517.75;;;0.54;72.30
56568;BME280;42456;49.956;20.004;2023-02-03T08:29:19;98507.72;;;0.56;71.84
56568;BME280;42456;49.956;20.004;2023-02-03T08:31:46;98502.90;;;0.57;71.49
56568;BME280;42456;49.956;20.004;2023-02-03T08:34:13;98497.66;;;0.57;71.37
56568;BME280;42456;49.956;20.004;2023-02-03T08:36:40;98489.84;;;0.58;71.54
56568;BME280;42456;49.956;20.004;2023-02-03T08:39:09;98494.45;;;0.60;71.61
56568;BME280;42456;49.956;20.004;2023-02-03T08:41:36;98488.44;;;0.66;71.59
56568;BME280;42456;49.956;20.004;2023-02-03T08:44:03;98482.96;;;0.74;71.58
56568;BME280;42456;49.956;20.004;2023-02-03T08:46:30;98476.04;;;0.83;70.88
56568;BME280;42456;49.956;20.004;2023-02-03T08:48:57;98473.41;;;0.90;71.37
56568;BME280;42456;49.956;20.004;2023-02-03T08:51:23;98466.77;;;0.96;71.22
56568;BME280;42456;49.956;20.004;2023-02-03T08:53:51;98467.34;;;1.01;70.80
56568;BME280;42456;49.956;20.004;2023-02-03T08:56:17;98461.64;;;1.06;70.23
56568;BME280;42456;49.956;20.004;2023-02-03T08:58:44;98458.68;;;1.12;70.29
56568;BME280;42456;49.956;20.004;2023-02-03T09:01:13;98452.45;;;1.16;70.90
56568;BME280;42456;49.956;20.004;2023-02-03T09:03:41;98444.33;;;1.18;69.85
56568;BME280;42456;49.956;20.004;2023-02-03T09:06:08;98442.38;;;1.21;69.45
56568;BME280;42456;49.956;20.004;2023-02-03T09:08:37;98434.86;;;1.27;69.18
56568;BME280;42456;49.956;20.004;2023-02-03T09:11:16;98429.88;;;1.31;68.12
56568;BME280;42456;49.956;20.004;2023-02-03T09:13:44;98432.37;;;1.37;68.19
56568;BME280;42456;49.956;20.004;2023-02-03T09:16:16;98433.90;;;1.44;68.27
56568;BME280;42456;49.956;20.004;2023-02-03T09:18:46;98426.64;;;1.50;68.34
56568;BME280;42456;49.956;20.004;2023-02-03T09:21:13;98427.48;;;1.54;68.73
56568;BME280;42456;49.956;20.004;2023-02-03T09:24:02;98428.05;;;1.60;68.22
56568;BME280;42456;49.956;20.004;2023-02-03T09:26:29;98424.23;;;1.67;67.58
56568;BME280;42456;49.956;20.004;2023-02-03T09:28:56;98418.92;;;1.75;67.42
56568;BME280;42456;49.956;20.004;2023-02-03T09:31:22;98415.30;;;1.83;67.40
56568;BME280;42456;49.956;20.004;2023-02-03T09:33:50;98410.61;;;1.89;66.73
56568;BME280;42456;49.956;20.004;2023-02-03T09:36:17;98414.67;;;1.97;66.79
56568;BME280;42456;49.956;20.004;2023-02-03T09:38:43;98406.75;;;2.05;66.38
56568;BME280;42456;49.956;20.004;2023-02-03T09:41:29;98407.09;;;2.14;66.65
56568;BME280;42456;49.956;20.004;2023-02-03T09:47:14;98386.69;;;2.31;65.78
56568;BME280;42456;49.956;20.004;2023-02-03T09:49:49;98384.98;;;2.36;65.29
56568;BME280;42456;49.956;20.004;2023-02-03T09:52:22;98381.15;;;2.36;64.30
56568;BME280;42456;49.956;20.004;2023-02-03T09:55:18;98375.75;;;2.31;64.37
56568;BME280;42456;49.956;20.004;2023-02-03T09:57:49;98372.92;;;2.27;63.87
56568;BME280;42456;49.956;20.004;2023-02-03T10:00:26;98369.70;;;2.24;63.83
56568;BME280;42456;49.956;20.004;2023-02-03T10:02:59;98368.63;;;2.24;63.81
56568;BME280;42456;49.956;20.004;2023-02-03T10:11:31;98353.90;;;2.39;63.88
56568;BME280;42456;49.956;20.004;2023-02-03T10:14:09;98343.28;;;2.41;63.67
56568;BME280;42456;49.956;20.004;2023-02-03T10:19:14;98334.92;;;2.45;64.09
56568;BME280;42456;49.956;20.004;2023-02-03T10:21:47;98318.50;;;2.49;64.41
56568;BME280;42456;49.956;20.004;2023-02-03T10:24:38;98305.04;;;2.52;64.30
56568;BME280;42456;49.956;20.004;2023-02-03T10:27:16;98291.03;;;2.59;64.75
56568;BME280;42456;49.956;20.004;2023-02-03T10:32:27;98271.66;;;2.76;64.94
56568;BME280;42456;49.956;20.004;2023-02-03T10:34:54;98267.58;;;2.83;65.11
56568;BME280;42456;49.956;20.004;2023-02-03T10:37:37;98263.61;;;2.87;64.60
56568;BME280;42456;49.956;20.004;2023-02-03T10:40:11;98260.85;;;2.88;64.28
56568;BME280;42456;49.956;20.004;2023-02-03T10:42:38;98248.16;;;2.86;64.03
56568;BME280;42456;49.956;20.004;2023-02-03T10:45:19;98235.92;;;2.82;64.24
56568;BME280;42456;49.956;20.004;2023-02-03T10:47:50;98228.73;;;2.80;64.07
56568;BME280;42456;49.956;20.004;2023-02-03T10:50:22;98213.16;;;2.79;64.29
56568;BME280;42456;49.956;20.004;2023-02-03T10:52:49;98203.50;;;2.75;63.85
56568;BME280;42456;49.956;20.004;2023-02-03T10:57:53;98184.67;;;2.55;63.77
56568;BME280;42456;49.956;20.004;2023-02-03T11:00:27;98177.68;;;2.41;64.30
56568;BME280;42456;49.956;20.004;2023-02-03T11:03:04;98165.56;;;2.29;64.87
56568;BME280;42456;49.956;20.004;2023-02-03T11:05:31;98160.39;;;2.20;65.33
56568;BME280;42456;49.956;20.004;2023-02-03T11:07:59;98156.58;;;2.11;65.43
56568;BME280;42456;49.956;20.004;2023-02-03T11:10:40;98152.17;;;2.06;66.20
56568;BME280;42456;49.956;20.004;2023-02-03T11:13:15;98145.45;;;2.03;66.76
56568;BME280;42456;49.956;20.004;2023-02-03T11:15:56;98136.61;;;1.99;67.45
56568;BME280;42456;49.956;20.004;2023-02-03T11:21:12;98105.90;;;1.93;68.54
56568;BME280;42456;49.956;20.004;2023-02-03T11:23:46;98102.77;;;1.92;68.43
56568;BME280;42456;49.956;20.004;2023-02-03T11:26:18;98091.16;;;1.92;68.84
56568;BME280;42456;49.956;20.004;2023-02-03T11:28:48;98088.55;;;1.93;69.78
56568;BME280;42456;49.956;20.004;2023-02-03T11:31:21;98081.92;;;1.92;69.56
56568;BME280;42456;49.956;20.004;2023-02-03T11:34:16;98067.44;;;1.89;70.44
56568;BME280;42456;49.956;20.004;2023-02-03T11:36:45;98057.88;;;1.83;70.32
56568;BME280;42456;49.956;20.004;2023-02-03T11:39:22;98052.23;;;1.79;70.86
56568;BME280;42456;49.956;20.004;2023-02-03T11:41:50;98042.31;;;1.72;71.15
56568;BME280;42456;49.956;20.004;2023-02-03T11:44:25;98029.64;;;1.67;71.72
56568;BME280;42456;49.956;20.004;2023-02-03T11:46:59;98019.14;;;1.61;71.66
56568;BME280;42456;49.956;20.004;2023-02-03T12:03:41;97945.66;;;1.44;73.61
56568;BME280;42456;49.956;20.004;2023-02-03T12:17:02;97888.15;;;1.51;75.31
56568;BME280;42456;49.956;20.004;2023-02-03T12:19:46;97880.02;;;1.54;75.96
56568;BME280;42456;49.956;20.004;2023-02-03T12:30:40;97840.14;;;1.60;75.83
56568;BME280;42456;49.956;20.004;2023-02-03T12:33:33;97834.43;;;1.58;76.24
56568;BME280;42456;49.956;20.004;2023-02-03T12:36:08;97822.72;;;1.59;75.83
56568;BME280;42456;49.956;20.004;2023-02-03T12:41:15;97811.89;;;1.55;76.10
56568;BME280;42456;49.956;20.004;2023-02-03T12:43:49;97802.80;;;1.54;76.37
56568;BME280;42456;49.956;20.004;2023-02-03T12:46:22;97795.40;;;1.51;76.59
56568;BME280;42456;49.956;20.004;2023-02-03T12:51:44;97779.38;;;1.44;76.92
56568;BME280;42456;49.956;20.004;2023-02-03T12:54:36;97771.01;;;1.43;77.17
56568;BME280;42456;49.956;20.004;2023-02-03T12:57:16;97761.23;;;1.42;77.40
56568;BME280;42456;49.956;20.004;2023-02-03T12:59:58;97752.79;;;1.43;77.46
56568;BME280;42456;49.956;20.004;2023-02-03T13:02:32;97744.77;;;1.44;77.63
56568;BME280;42456;49.956;20.004;2023-02-03T13:05:12;97738.13;;;1.46;77.85
56568;BME280;42456;49.956;20.004;2023-02-03T13:07:48;97733.34;;;1.47;78.07
56568;BME280;42456;49.956;20.004;2023-02-03T13:12:55;97716.08;;;1.50;78.36
56568;BME280;42456;49.956;20.004;2023-02-03T13:15:33;97708.99;;;1.53;78.88
56568;BME280;42456;49.956;20.004;2023-02-03T13:18:07;97706.20;;;1.56;78.78
56568;BME280;42456;49.956;20.004;2023-02-03T13:20:37;97696.76;;;1.57;78.81
56568;BME280;42456;49.956;20.004;2023-02-03T13:23:12;97694.13;;;1.59;78.97
56568;BME280;42456;49.956;20.004;2023-02-03T13:25:58;97685.94;;;1.61;79.04
56568;BME280;42456;49.956;20.004;2023-02-03T13:31:27;97673.52;;;1.63;78.82
56568;BME280;42456;49.956;20.004;2023-02-03T13:36:55;97651.84;;;1.59;79.01
56568;BME280;42456;49.956;20.004;2023-02-03T13:44:52;97622.52;;;1.55;79.66
56568;BME280;42456;49.956;20.004;2023-02-03T13:47:24;97620.96;;;1.53;79.79
56568;BME280;42456;49.956;20.004;2023-02-03T13:49:55;97614.77;;;1.52;80.51
56568;BME280;42456;49.956;20.004;2023-02-03T13:54:55;97598.67;;;1.53;80.47
56568;BME280;42456;49.956;20.004;2023-02-03T13:57:36;97592.19;;;1.54;80.36
56568;BME280;42456;49.956;20.004;2023-02-03T14:00:56;97588.45;;;1.56;81.07
56568;BME280;42456;49.956;20.004;2023-02-03T14:02:55;97579.40;;;1.58;80.82
56568;BME280;42456;49.956;20.004;2023-02-03T14:05:37;97575.80;;;1.61;81.19
56568;BME280;42456;49.956;20.004;2023-02-03T14:13:45;97547.89;;;1.67;81.36
56568;BME280;42456;49.956;20.004;2023-02-03T14:16:23;97536.30;;;1.66;81.66
56568;BME280;42456;49.956;20.004;2023-02-03T14:18:50;97527.61;;;1.66;81.98
56568;BME280;42456;49.956;20.004;2023-02-03T14:21:20;97519.61;;;1.65;81.77
56568;BME280;42456;49.956;20.004;2023-02-03T14:23:55;97506.94;;;1.62;82.04
56568;BME280;42456;49.956;20.004;2023-02-03T14:26:53;97505.15;;;1.61;81.95
56568;BME280;42456;49.956;20.004;2023-02-03T14:29:42;97497.41;;;1.58;81.93
56568;BME280;42456;49.956;20.004;2023-02-03T14:32:11;97489.68;;;1.54;82.39
56568;BME280;42456;49.956;20.004;2023-02-03T14:34:40;97485.76;;;1.51;82.13
56568;BME280;42456;49.956;20.004;2023-02-03T14:50:57;97445.70;;;1.38;82.81
56568;BME280;42456;49.956;20.004;2023-02-03T14:53:39;97437.80;;;1.38;83.76
56568;BME280;42456;49.956;20.004;2023-02-03T14:58:58;97430.98;;;1.37;83.81
56568;BME280;42456;49.956;20.004;2023-02-03T15:06:51;97421.00;;;1.39;83.74
56568;BME280;42456;49.956;20.004;2023-02-03T15:12:25;97415.97;;;1.42;83.95
56568;BME280;42456;49.956;20.004;2023-02-03T15:14:52;97415.84;;;1.44;83.62
56568;BME280;42456;49.956;20.004;2023-02-03T15:17:22;97411.30;;;1.45;84.11
56568;BME280;42456;49.956;20.004;2023-02-03T15:19:50;97407.76;;;1.45;84.09
56568;BME280;42456;49.956;20.004;2023-02-03T15:22:26;97409.33;;;1.46;84.02
56568;BME280;42456;49.956;20.004;2023-02-03T15:25:02;97408.35;;;1.48;84.05
56568;BME280;42456;49.956;20.004;2023-02-03T15:27:31;97406.13;;;1.50;84.19
56568;BME280;42456;49.956;20.004;2023-02-03T15:30:16;97411.34;;;1.52;84.58
56568;BME280;42456;49.956;20.004;2023-02-03T15:35:40;97411.42;;;1.59;84.54
56568;BME280;42456;49.956;20.004;2023-02-03T15:38:29;97413.93;;;1.62;84.35
56568;BME280;42456;49.956;20.004;2023-02-03T15:40:57;97416.33;;;1.64;84.40
56568;BME280;42456;49.956;20.004;2023-02-03T15:43:39;97422.95;;;1.64;84.41
56568;BME280;42456;49.956;20.004;2023-02-03T15:46:15;97425.02;;;1.64;84.50